Time;durP1;ratioP1;P1;durP2;ratioP2;P2;SDS_P1;SDS_P2;PMS_P1;PMS_P2;Temp;Humidity;BMP_temperature;BMP_pressure;BME280_temperature;BME280_humidity;BME280_pressure;Samples;Min_cycle;Max_cycle;Signal;HPM_P1;HPM_P2
2022/03/12 00:00:38;;;;;;;19.63;9.98;;;;;;;;;;5010550;28;106772;-70
2022/03/12 00:03:05;;;;;;;24.00;10.95;;;;;;;;;;5002326;27;109170;-70
2022/03/12 00:05:35;;;;;;;19.13;10.57;;;;;;;;;;5009245;28;106081;-69
2022/03/12 00:08:04;;;;;;;19.98;10.60;;;;;;;;;;5003371;28;107141;-69
2022/03/12 00:10:33;;;;;;;21.38;10.65;;;;;;;;;;4990867;28;106348;-69
2022/03/12 00:13:00;;;;;;;22.55;10.57;;;;;;;;;;5009864;28;106401;-67
2022/03/12 00:15:33;;;;;;;18.85;9.82;;;;;;;;;;5014193;28;106897;-68
2022/03/12 00:17:59;;;;;;;23.35;10.30;;;;;;;;;;5030320;27;108560;-67
2022/03/12 00:20:28;;;;;;;20.95;10.15;;;;;;;;;;5037090;27;106031;-67
2022/03/12 00:22:56;;;;;;;21.55;10.88;;;;;;;;;;5031565;27;107987;-69
2022/03/12 00:25:24;;;;;;;19.33;10.05;;;;;;;;;;5032542;27;106563;-69
2022/03/12 00:27:51;;;;;;;17.23;10.02;;;;;;;;;;5026759;27;106038;-69
2022/03/12 00:30:22;;;;;;;21.00;9.70;;;;;;;;;;4996381;27;107667;-69
2022/03/12 00:32:49;;;;;;;23.67;10.70;;;;;;;;;;5026710;27;109682;-69
2022/03/12 00:35:16;;;;;;;19.63;10.18;;;;;;;;;;5012229;27;106743;-69
2022/03/12 00:37:42;;;;;;;22.73;10.68;;;;;;;;;;5028901;27;107497;-69
2022/03/12 00:40:09;;;;;;;21.75;10.15;;;;;;;;;;5033008;27;107578;-68
2022/03/12 00:42:36;;;;;;;23.75;10.30;;;;;;;;;;5033913;27;106508;-70
2022/03/12 00:45:02;;;;;;;20.13;9.65;;;;;;;;;;5029042;27;106072;-69
2022/03/12 00:47:29;;;;;;;20.83;10.63;;;;;;;;;;5033667;27;107192;-69
2022/03/12 00:49:56;;;;;;;20.15;10.48;;;;;;;;;;5030630;27;108618;-69
2022/03/12 00:52:22;;;;;;;21.05;10.45;;;;;;;;;;5031754;27;106355;-69
2022/03/12 00:54:49;;;;;;;22.10;10.50;;;;;;;;;;5012907;27;107304;-69
2022/03/12 00:57:15;;;;;;;21.45;10.13;;;;;;;;;;5031033;27;106390;-69
2022/03/12 00:59:42;;;;;;;26.63;10.38;;;;;;;;;;5034303;27;106538;-69
2022/03/12 01:02:11;;;;;;;18.65;10.13;;;;;;;;;;5031604;27;105742;-69
2022/03/12 01:04:37;;;;;;;24.20;10.13;;;;;;;;;;5030642;27;107775;-68
2022/03/12 01:07:04;;;;;;;23.25;10.02;;;;;;;;;;5027361;27;106736;-68
2022/03/12 01:09:30;;;;;;;22.67;9.57;;;;;;;;;;5041670;27;107889;-68
2022/03/12 01:11:56;;;;;;;22.23;10.02;;;;;;;;;;5030873;27;106192;-67
2022/03/12 01:14:23;;;;;;;20.52;10.10;;;;;;;;;;5011823;28;106950;-68
2022/03/12 01:16:50;;;;;;;20.23;9.85;;;;;;;;;;5023885;27;106561;-68
2022/03/12 01:19:16;;;;;;;19.55;9.82;;;;;;;;;;5031888;27;106270;-69
2022/03/12 01:21:43;;;;;;;25.35;10.20;;;;;;;;;;5031223;27;107702;-67
2022/03/12 01:24:09;;;;;;;21.15;10.52;;;;;;;;;;5025215;27;107360;-67
2022/03/12 01:26:36;;;;;;;20.90;10.25;;;;;;;;;;5020333;27;107919;-68
2022/03/12 01:29:03;;;;;;;21.42;10.20;;;;;;;;;;5020820;27;107710;-68
2022/03/12 01:31:29;;;;;;;21.25;10.30;;;;;;;;;;5024817;27;106131;-69
2022/03/12 01:33:56;;;;;;;25.13;10.40;;;;;;;;;;5031602;27;106761;-68
2022/03/12 01:36:22;;;;;;;19.35;10.32;;;;;;;;;;5026525;27;107480;-69
2022/03/12 01:38:50;;;;;;;23.17;11.30;;;;;;;;;;5032932;27;106174;-69
2022/03/12 01:41:24;;;;;;;16.58;9.23;;;;;;;;;;5031150;27;106688;-69
2022/03/12 01:43:52;;;;;;;22.30;10.32;;;;;;;;;;5012828;27;107181;-69
2022/03/12 01:46:27;;;;;;;30.27;10.45;;;;;;;;;;5027451;27;107482;-68
2022/03/12 01:48:53;;;;;;;19.00;9.93;;;;;;;;;;5028970;27;106307;-68
2022/03/12 01:51:19;;;;;;;23.27;10.77;;;;;;;;;;5023811;27;106571;-68
2022/03/12 01:53:46;;;;;;;21.88;10.10;;;;;;;;;;5020291;27;107594;-68
2022/03/12 01:56:13;;;;;;;23.55;10.73;;;;;;;;;;5022554;27;107546;-68
2022/03/12 01:58:44;;;;;;;26.38;10.82;;;;;;;;;;5027302;27;108988;-68
2022/03/12 02:01:11;;;;;;;20.75;10.63;;;;;;;;;;5010456;27;109025;-68
2022/03/12 02:03:38;;;;;;;27.42;10.18;;;;;;;;;;5031326;27;106343;-68
2022/03/12 02:06:05;;;;;;;22.35;10.95;;;;;;;;;;5019041;27;106805;-67
2022/03/12 02:08:31;;;;;;;26.40;10.85;;;;;;;;;;5049106;27;106451;-68
2022/03/12 02:10:59;;;;;;;22.17;10.40;;;;;;;;;;5034831;27;105728;-68
2022/03/12 02:13:26;;;;;;;21.70;10.73;;;;;;;;;;5029155;27;107070;-68
2022/03/12 02:16:03;;;;;;;23.15;10.88;;;;;;;;;;5040100;27;107295;-68
2022/03/12 02:18:29;;;;;;;21.48;10.85;;;;;;;;;;5018186;27;105898;-68
2022/03/12 02:20:57;;;;;;;25.08;10.52;;;;;;;;;;5018249;27;107539;-68
2022/03/12 02:23:23;;;;;;;24.10;10.98;;;;;;;;;;5022976;27;107421;-68
2022/03/12 02:25:50;;;;;;;20.77;10.60;;;;;;;;;;5030119;27;106863;-68
2022/03/12 02:28:17;;;;;;;26.35;11.43;;;;;;;;;;5031044;27;105892;-68
2022/03/12 02:30:55;;;;;;;26.10;11.27;;;;;;;;;;5033585;27;107466;-68
2022/03/12 02:33:28;;;;;;;23.30;11.35;;;;;;;;;;5028089;27;106615;-68
2022/03/12 02:35:56;;;;;;;23.58;11.32;;;;;;;;;;5028884;27;107167;-68
2022/03/12 02:38:24;;;;;;;24.23;11.48;;;;;;;;;;5032783;27;106409;-68
2022/03/12 02:40:52;;;;;;;22.45;11.50;;;;;;;;;;5022372;27;106739;-68
2022/03/12 02:43:20;;;;;;;21.27;11.07;;;;;;;;;;5016894;27;107895;-68
2022/03/12 02:45:48;;;;;;;20.90;11.32;;;;;;;;;;5027541;27;106144;-68
2022/03/12 02:48:15;;;;;;;22.45;11.32;;;;;;;;;;5029505;27;106795;-68
2022/03/12 02:50:43;;;;;;;22.00;10.82;;;;;;;;;;5028712;27;107382;-68
2022/03/12 02:53:09;;;;;;;21.67;11.57;;;;;;;;;;5021996;27;107114;-67
2022/03/12 02:55:39;;;;;;;21.17;11.57;;;;;;;;;;5011549;27;107827;-68
2022/03/12 02:58:09;;;;;;;21.05;11.18;;;;;;;;;;5029967;27;105869;-68
2022/03/12 03:00:36;;;;;;;20.55;10.75;;;;;;;;;;5030913;27;106790;-68
2022/03/12 03:03:05;;;;;;;24.58;11.50;;;;;;;;;;5029815;27;107436;-68
2022/03/12 03:05:41;;;;;;;19.63;11.10;;;;;;;;;;5029982;27;106832;-68
2022/03/12 03:08:09;;;;;;;24.98;11.75;;;;;;;;;;5034543;27;107085;-68
2022/03/12 03:10:36;;;;;;;23.77;11.85;;;;;;;;;;5015804;27;107373;-68
2022/03/12 03:13:11;;;;;;;21.08;11.32;;;;;;;;;;5023974;27;105975;-68
2022/03/12 03:15:39;;;;;;;31.55;11.70;;;;;;;;;;5033513;27;107744;-68
2022/03/12 03:18:08;;;;;;;23.25;11.10;;;;;;;;;;5027293;27;106148;-67
2022/03/12 03:20:34;;;;;;;19.48;10.38;;;;;;;;;;5030766;27;107003;-68
2022/03/12 03:23:01;;;;;;;23.17;11.30;;;;;;;;;;5030979;27;107412;-69
2022/03/12 03:25:27;;;;;;;24.45;11.55;;;;;;;;;;5035898;27;106472;-69
2022/03/12 03:27:54;;;;;;;22.13;11.32;;;;;;;;;;5029839;27;106525;-66
2022/03/12 03:30:21;;;;;;;21.40;10.80;;;;;;;;;;5027949;27;107527;-67
2022/03/12 03:32:48;;;;;;;23.50;11.43;;;;;;;;;;5030309;27;106045;-67
2022/03/12 03:35:14;;;;;;;22.13;11.25;;;;;;;;;;5024378;27;107670;-70
2022/03/12 03:37:40;;;;;;;25.65;10.68;;;;;;;;;;5033724;27;106366;-68
2022/03/12 03:40:08;;;;;;;23.95;10.77;;;;;;;;;;5029208;27;105887;-68
2022/03/12 03:42:34;;;;;;;20.65;10.40;;;;;;;;;;5018857;27;107526;-67
2022/03/12 03:45:02;;;;;;;17.98;10.77;;;;;;;;;;5028635;27;107201;-68
2022/03/12 03:47:29;;;;;;;17.98;9.82;;;;;;;;;;5021790;27;108407;-68
2022/03/12 03:49:55;;;;;;;24.90;12.20;;;;;;;;;;5030604;27;106895;-68
2022/03/12 03:52:21;;;;;;;21.48;10.50;;;;;;;;;;5019217;27;106212;-68
2022/03/12 03:54:48;;;;;;;22.60;10.63;;;;;;;;;;5034090;27;107254;-68
2022/03/12 03:57:17;;;;;;;22.80;11.65;;;;;;;;;;5035704;27;106328;-68
2022/03/12 03:59:43;;;;;;;23.77;10.82;;;;;;;;;;5033292;27;106785;-68
2022/03/12 04:02:10;;;;;;;19.90;11.13;;;;;;;;;;5030949;27;107777;-68
2022/03/12 04:04:38;;;;;;;19.77;10.82;;;;;;;;;;5031140;27;105584;-68
2022/03/12 04:07:05;;;;;;;23.48;11.13;;;;;;;;;;5042888;27;107223;-69
2022/03/12 04:09:31;;;;;;;20.65;10.82;;;;;;;;;;5023414;27;106519;-69
2022/03/12 04:11:58;;;;;;;21.23;10.65;;;;;;;;;;5033576;27;105625;-69
2022/03/12 04:14:26;;;;;;;24.57;11.67;;;;;;;;;;5029011;27;107281;-68
2022/03/12 04:16:53;;;;;;;18.77;10.40;;;;;;;;;;5012366;28;107435;-68
2022/03/12 04:19:19;;;;;;;23.27;11.35;;;;;;;;;;5021078;27;107436;-67
2022/03/12 04:21:46;;;;;;;20.63;11.30;;;;;;;;;;5013443;27;106385;-70
2022/03/12 04:24:13;;;;;;;24.10;10.77;;;;;;;;;;5038310;27;105734;-67
2022/03/12 04:26:40;;;;;;;26.00;12.10;;;;;;;;;;5031949;27;106848;-69
2022/03/12 04:29:08;;;;;;;20.95;10.80;;;;;;;;;;5031313;27;107725;-67
2022/03/12 04:31:35;;;;;;;21.20;11.32;;;;;;;;;;5028060;27;106421;-69
2022/03/12 04:34:02;;;;;;;21.83;11.75;;;;;;;;;;5027810;27;106282;-68
2022/03/12 04:36:28;;;;;;;21.85;11.43;;;;;;;;;;4996599;28;107862;-68
2022/03/12 04:38:55;;;;;;;24.80;11.10;;;;;;;;;;5024644;27;106083;-67
2022/03/12 04:41:23;;;;;;;24.42;11.55;;;;;;;;;;5034267;27;106956;-67
2022/03/12 04:43:50;;;;;;;22.48;11.13;;;;;;;;;;5013267;27;106826;-67
2022/03/12 04:46:17;;;;;;;23.42;11.85;;;;;;;;;;5031051;27;108454;-67
2022/03/12 04:48:44;;;;;;;22.25;11.02;;;;;;;;;;5030783;27;107976;-67
2022/03/12 04:51:11;;;;;;;22.45;11.23;;;;;;;;;;5030838;27;106326;-68
2022/03/12 04:53:38;;;;;;;22.90;11.38;;;;;;;;;;5031895;27;106961;-67
2022/03/12 04:56:05;;;;;;;22.90;11.65;;;;;;;;;;5028784;27;107601;-68
2022/03/12 04:58:31;;;;;;;27.88;10.50;;;;;;;;;;5028904;27;107494;-68
2022/03/12 05:00:58;;;;;;;20.70;10.10;;;;;;;;;;5018400;27;108378;-67
2022/03/12 05:03:25;;;;;;;21.27;11.40;;;;;;;;;;5020667;27;107355;-67
2022/03/12 05:05:53;;;;;;;19.55;10.57;;;;;;;;;;5030066;27;105835;-67
2022/03/12 05:08:23;;;;;;;23.10;10.35;;;;;;;;;;5029895;27;106799;-68
2022/03/12 05:10:51;;;;;;;20.95;10.50;;;;;;;;;;5030568;27;105838;-68
2022/03/12 05:13:25;;;;;;;20.55;10.93;;;;;;;;;;5029296;27;106823;-69
2022/03/12 05:15:53;;;;;;;21.65;11.45;;;;;;;;;;5023891;27;107345;-69
2022/03/12 05:18:20;;;;;;;22.45;11.07;;;;;;;;;;4992563;28;108229;-67
2022/03/12 05:20:46;;;;;;;21.38;11.30;;;;;;;;;;5010083;28;106469;-69
2022/03/12 05:23:13;;;;;;;20.45;11.20;;;;;;;;;;4998448;28;106492;-67
2022/03/12 05:25:45;;;;;;;18.05;10.85;;;;;;;;;;5002035;28;106138;-68
2022/03/12 05:28:15;;;;;;;21.80;11.45;;;;;;;;;;5004848;28;107453;-67
2022/03/12 05:30:45;;;;;;;21.30;11.13;;;;;;;;;;5010647;27;107047;-68
2022/03/12 05:33:12;;;;;;;20.52;10.68;;;;;;;;;;5010965;28;106371;-67
2022/03/12 05:35:41;;;;;;;22.15;10.82;;;;;;;;;;5009030;27;107543;-67
2022/03/12 05:38:11;;;;;;;21.48;10.35;;;;;;;;;;5007955;28;106217;-67
2022/03/12 05:40:43;;;;;;;28.80;11.23;;;;;;;;;;5003240;28;107054;-70
2022/03/12 05:43:12;;;;;;;20.08;10.70;;;;;;;;;;5005371;28;107452;-67
2022/03/12 05:45:39;;;;;;;23.05;11.48;;;;;;;;;;5010990;28;107543;-69
2022/03/12 05:48:09;;;;;;;19.63;11.07;;;;;;;;;;4991433;28;107422;-69
2022/03/12 05:50:36;;;;;;;22.48;11.82;;;;;;;;;;5001010;28;106241;-68
2022/03/12 05:53:05;;;;;;;22.52;11.30;;;;;;;;;;4991017;28;107404;-67
2022/03/12 05:55:38;;;;;;;21.80;10.57;;;;;;;;;;5005961;27;108674;-68
2022/03/12 05:58:04;;;;;;;20.35;10.85;;;;;;;;;;5010020;28;106569;-67
2022/03/12 06:00:32;;;;;;;24.77;11.02;;;;;;;;;;5009439;28;106723;-68
2022/03/12 06:03:03;;;;;;;19.48;10.55;;;;;;;;;;5010593;27;109535;-67
2022/03/12 06:05:31;;;;;;;19.08;10.55;;;;;;;;;;5003111;28;106557;-67
2022/03/12 06:07:59;;;;;;;21.33;10.18;;;;;;;;;;5008978;27;106349;-67
2022/03/12 06:10:28;;;;;;;27.20;10.90;;;;;;;;;;5005255;28;106121;-67
2022/03/12 06:12:56;;;;;;;19.38;10.57;;;;;;;;;;4993908;28;105997;-68
2022/03/12 06:15:23;;;;;;;17.55;10.10;;;;;;;;;;4999991;28;107832;-68
2022/03/12 06:17:50;;;;;;;17.75;9.90;;;;;;;;;;5025494;27;106896;-68
2022/03/12 06:20:17;;;;;;;21.08;10.65;;;;;;;;;;5028721;27;107044;-68
2022/03/12 06:22:44;;;;;;;17.77;10.05;;;;;;;;;;5017067;27;107399;-71
2022/03/12 06:25:12;;;;;;;19.05;9.65;;;;;;;;;;5023518;27;106584;-68
2022/03/12 06:27:39;;;;;;;19.17;10.02;;;;;;;;;;5026250;27;106892;-72
2022/03/12 06:30:08;;;;;;;18.48;10.02;;;;;;;;;;5018591;27;106560;-68
2022/03/12 06:32:37;;;;;;;18.58;10.38;;;;;;;;;;5029687;27;106789;-68
2022/03/12 06:35:04;;;;;;;19.20;9.30;;;;;;;;;;5029191;27;107408;-68
2022/03/12 06:37:30;;;;;;;17.70;9.90;;;;;;;;;;5016857;27;105957;-68
2022/03/12 06:39:58;;;;;;;17.42;9.80;;;;;;;;;;5028978;27;107129;-67
2022/03/12 06:42:25;;;;;;;19.33;10.40;;;;;;;;;;5029986;27;106211;-67
2022/03/12 06:44:55;;;;;;;21.52;10.10;;;;;;;;;;5029687;27;106656;-67
2022/03/12 06:47:28;;;;;;;15.05;8.98;;;;;;;;;;5026922;27;106133;-68
2022/03/12 06:49:56;;;;;;;17.25;10.00;;;;;;;;;;5014736;27;107852;-67
2022/03/12 06:52:24;;;;;;;18.35;10.15;;;;;;;;;;5032546;27;106670;-67
2022/03/12 06:54:51;;;;;;;17.83;10.07;;;;;;;;;;5010859;27;106341;-68
2022/03/12 06:57:18;;;;;;;18.88;9.13;;;;;;;;;;5010966;27;106179;-68
2022/03/12 06:59:45;;;;;;;18.13;9.13;;;;;;;;;;5029717;27;107443;-68
2022/03/12 07:02:11;;;;;;;17.50;9.73;;;;;;;;;;5009437;27;108448;-68
2022/03/12 07:04:38;;;;;;;17.23;9.35;;;;;;;;;;5013450;27;106728;-66
2022/03/12 07:07:04;;;;;;;15.48;9.05;;;;;;;;;;5029451;27;106915;-67
2022/03/12 07:09:32;;;;;;;16.80;9.20;;;;;;;;;;5026752;27;107393;-67
2022/03/12 07:11:58;;;;;;;15.85;8.65;;;;;;;;;;5012144;27;107288;-67
2022/03/12 07:14:25;;;;;;;16.13;8.90;;;;;;;;;;5016664;27;107241;-69
2022/03/12 07:16:55;;;;;;;14.50;8.48;;;;;;;;;;5012222;27;107596;-67
2022/03/12 07:19:21;;;;;;;17.92;9.20;;;;;;;;;;5028656;27;106381;-67
2022/03/12 07:21:49;;;;;;;17.40;9.50;;;;;;;;;;5026904;27;108996;-69
2022/03/12 07:24:16;;;;;;;17.27;9.07;;;;;;;;;;5028782;27;106846;-67
2022/03/12 07:26:44;;;;;;;19.58;9.05;;;;;;;;;;5009337;27;108516;-69
2022/03/12 07:29:11;;;;;;;14.15;8.52;;;;;;;;;;5009140;27;107791;-67
2022/03/12 07:31:37;;;;;;;16.67;9.15;;;;;;;;;;5027682;27;106307;-69
2022/03/12 07:34:04;;;;;;;18.17;9.05;;;;;;;;;;5028191;27;107931;-67
2022/03/12 07:36:31;;;;;;;15.10;8.55;;;;;;;;;;5031447;27;107216;-66
2022/03/12 07:39:03;;;;;;;14.73;8.82;;;;;;;;;;5023496;27;106760;-67
2022/03/12 07:41:30;;;;;;;20.25;8.68;;;;;;;;;;5027986;27;107420;-67
2022/03/12 07:43:56;;;;;;;15.98;8.75;;;;;;;;;;5011561;27;105991;-67
2022/03/12 07:46:23;;;;;;;17.02;9.15;;;;;;;;;;5028811;27;105711;-67
2022/03/12 07:48:49;;;;;;;15.38;9.05;;;;;;;;;;5027787;27;107424;-67
2022/03/12 07:51:16;;;;;;;16.00;8.60;;;;;;;;;;5028051;27;107145;-67
2022/03/12 07:53:42;;;;;;;14.20;8.20;;;;;;;;;;5021234;27;107255;-70
2022/03/12 07:56:09;;;;;;;13.88;8.70;;;;;;;;;;5031712;27;108634;-71
2022/03/12 07:58:36;;;;;;;14.10;8.45;;;;;;;;;;5028936;27;106343;-68
2022/03/12 08:01:03;;;;;;;15.45;8.68;;;;;;;;;;5022132;27;107416;-67
2022/03/12 08:03:30;;;;;;;15.68;8.75;;;;;;;;;;5028562;27;106235;-68
2022/03/12 08:05:57;;;;;;;14.77;8.95;;;;;;;;;;5025878;27;105841;-67
2022/03/12 08:08:23;;;;;;;16.00;9.20;;;;;;;;;;5019350;27;107593;-67
2022/03/12 08:13:36;;;;;;;16.40;8.73;;;;;;;;;;5024003;27;106480;-67
2022/03/12 08:16:02;;;;;;;15.93;8.20;;;;;;;;;;5023380;27;107550;-67
2022/03/12 08:18:29;;;;;;;13.75;8.30;;;;;;;;;;5031309;27;106659;-68
2022/03/12 08:20:55;;;;;;;15.80;8.88;;;;;;;;;;5020584;27;106399;-67
2022/03/12 08:23:22;;;;;;;15.43;8.45;;;;;;;;;;5024647;27;107219;-67
2022/03/12 08:25:49;;;;;;;16.25;8.25;;;;;;;;;;5026240;27;107833;-68
2022/03/12 08:28:17;;;;;;;16.67;8.00;;;;;;;;;;5009499;27;109357;-67
2022/03/12 08:30:44;;;;;;;15.52;8.82;;;;;;;;;;5002299;27;106041;-67
2022/03/12 08:33:10;;;;;;;17.48;8.60;;;;;;;;;;5012248;27;106533;-67
2022/03/12 08:35:36;;;;;;;12.68;6.53;;;;;;;;;;5025386;27;107923;-67
2022/03/12 08:38:07;;;;;;;11.17;7.00;;;;;;;;;;5018147;27;106435;-67
2022/03/12 08:40:35;;;;;;;13.40;7.30;;;;;;;;;;5035615;27;107388;-67
2022/03/12 08:43:01;;;;;;;11.93;6.65;;;;;;;;;;5029634;27;106560;-68
2022/03/12 08:45:29;;;;;;;13.32;6.50;;;;;;;;;;5027095;27;106926;-68
2022/03/12 08:47:56;;;;;;;10.50;6.60;;;;;;;;;;5018537;27;109566;-67
2022/03/12 08:50:24;;;;;;;10.98;6.28;;;;;;;;;;5029515;27;106088;-68
2022/03/12 08:52:51;;;;;;;12.70;6.20;;;;;;;;;;5024682;27;108112;-67
2022/03/12 08:55:18;;;;;;;11.77;6.20;;;;;;;;;;5030403;27;107843;-67
2022/03/12 08:57:44;;;;;;;12.05;6.07;;;;;;;;;;5030306;27;106378;-67
2022/03/12 09:00:12;;;;;;;13.75;7.05;;;;;;;;;;5023155;27;106022;-67
2022/03/12 09:02:39;;;;;;;13.25;6.82;;;;;;;;;;5033938;27;108759;-67
2022/03/12 09:05:06;;;;;;;11.60;6.45;;;;;;;;;;5030370;27;106043;-67
2022/03/12 09:07:33;;;;;;;12.32;5.93;;;;;;;;;;5028043;27;106212;-66
2022/03/12 09:10:00;;;;;;;12.48;6.15;;;;;;;;;;5031987;27;105667;-67
2022/03/12 09:12:26;;;;;;;13.13;6.30;;;;;;;;;;5025282;27;106540;-67
2022/03/12 09:14:53;;;;;;;12.38;6.22;;;;;;;;;;5025043;27;108476;-67
2022/03/12 09:17:20;;;;;;;9.57;5.72;;;;;;;;;;5027382;27;106429;-67
2022/03/12 09:19:48;;;;;;;10.77;6.03;;;;;;;;;;5012292;27;107775;-67
2022/03/12 09:22:14;;;;;;;17.17;6.13;;;;;;;;;;5021649;27;107781;-67
2022/03/12 09:24:41;;;;;;;11.93;5.78;;;;;;;;;;5033915;27;106488;-68
2022/03/12 09:27:08;;;;;;;10.77;5.63;;;;;;;;;;5030557;27;107482;-67
2022/03/12 09:29:35;;;;;;;7.78;4.47;;;;;;;;;;5028611;27;106910;-70
2022/03/12 09:32:04;;;;;;;10.93;5.10;;;;;;;;;;5012617;27;107484;-68
2022/03/12 09:34:30;;;;;;;11.23;4.63;;;;;;;;;;5028050;27;106336;-68
2022/03/12 09:36:57;;;;;;;12.20;5.07;;;;;;;;;;5029397;27;105985;-68
2022/03/12 09:39:23;;;;;;;12.75;4.72;;;;;;;;;;5021720;27;107357;-67
2022/03/12 09:41:50;;;;;;;11.15;3.97;;;;;;;;;;5007568;27;106744;-68
2022/03/12 09:44:16;;;;;;;11.50;5.05;;;;;;;;;;5034082;27;107399;-67
2022/03/12 09:46:43;;;;;;;9.45;4.85;;;;;;;;;;5030153;27;107473;-67
2022/03/12 09:49:12;;;;;;;10.73;4.75;;;;;;;;;;5030858;27;107290;-67
2022/03/12 09:51:40;;;;;;;11.23;4.68;;;;;;;;;;5029074;27;106754;-67
2022/03/12 09:54:08;;;;;;;10.13;5.57;;;;;;;;;;5022408;27;107399;-67
2022/03/12 09:56:35;;;;;;;12.00;5.47;;;;;;;;;;5026297;27;106535;-69
2022/03/12 09:59:01;;;;;;;9.20;4.85;;;;;;;;;;5030201;27;107005;-68
2022/03/12 10:01:28;;;;;;;10.55;5.00;;;;;;;;;;5029629;27;106714;-67
2022/03/12 10:03:54;;;;;;;8.93;4.97;;;;;;;;;;5030521;27;105663;-67
2022/03/12 10:06:21;;;;;;;11.90;5.20;;;;;;;;;;5031946;27;107406;-68
2022/03/12 10:08:48;;;;;;;13.45;5.72;;;;;;;;;;5028475;27;106340;-67
2022/03/12 10:11:15;;;;;;;9.90;5.10;;;;;;;;;;5028807;27;106764;-68
2022/03/12 10:13:42;;;;;;;9.60;5.47;;;;;;;;;;5021591;27;109386;-67
2022/03/12 10:16:09;;;;;;;11.75;5.38;;;;;;;;;;5023989;27;107370;-67
2022/03/12 10:18:38;;;;;;;13.23;6.15;;;;;;;;;;5028964;27;107593;-67
2022/03/12 10:21:04;;;;;;;12.02;5.90;;;;;;;;;;5020554;27;106536;-67
2022/03/12 10:23:31;;;;;;;12.70;5.88;;;;;;;;;;5024809;27;107217;-67
2022/03/12 10:25:58;;;;;;;12.60;5.63;;;;;;;;;;5029736;27;106773;-66
2022/03/12 10:28:25;;;;;;;10.57;5.78;;;;;;;;;;5031261;27;107555;-67
2022/03/12 10:30:53;;;;;;;9.52;4.88;;;;;;;;;;5029408;27;107843;-67
2022/03/12 10:33:21;;;;;;;10.98;5.30;;;;;;;;;;5026797;27;107661;-68
2022/03/12 10:35:48;;;;;;;11.50;5.47;;;;;;;;;;5027664;27;107190;-67
2022/03/12 10:38:14;;;;;;;13.27;5.40;;;;;;;;;;5029426;27;107003;-69
2022/03/12 10:40:41;;;;;;;16.23;5.70;;;;;;;;;;5024102;27;107244;-68
2022/03/12 10:43:13;;;;;;;10.43;5.22;;;;;;;;;;5029678;27;106842;-68
2022/03/12 10:45:41;;;;;;;9.88;5.30;;;;;;;;;;5031671;27;106758;-67
2022/03/12 10:48:09;;;;;;;13.18;5.45;;;;;;;;;;5021171;27;106966;-67
2022/03/12 10:50:39;;;;;;;11.70;5.47;;;;;;;;;;5021864;27;106277;-66
2022/03/12 10:53:07;;;;;;;8.40;4.18;;;;;;;;;;5032549;27;107442;-67
2022/03/12 10:55:34;;;;;;;10.60;4.57;;;;;;;;;;5026471;27;107484;-67
2022/03/12 10:58:05;;;;;;;8.35;3.28;;;;;;;;;;5026651;27;106683;-68
2022/03/12 11:00:34;;;;;;;8.52;2.85;;;;;;;;;;5022450;27;106975;-67
2022/03/12 11:03:01;;;;;;;7.20;2.27;;;;;;;;;;5024925;27;106862;-68
2022/03/12 11:05:29;;;;;;;9.85;2.58;;;;;;;;;;5024737;27;107297;-67
2022/03/12 11:08:07;;;;;;;10.82;2.85;;;;;;;;;;5021655;27;108407;-68
2022/03/12 11:10:35;;;;;;;12.40;2.80;;;;;;;;;;5027806;27;106310;-67
2022/03/12 11:13:02;;;;;;;8.68;2.78;;;;;;;;;;5027212;27;107779;-68
2022/03/12 11:15:32;;;;;;;12.77;2.88;;;;;;;;;;5004431;27;107489;-68
2022/03/12 11:18:03;;;;;;;8.00;2.80;;;;;;;;;;5027932;27;106680;-67
2022/03/12 11:20:35;;;;;;;6.97;2.63;;;;;;;;;;5023993;27;107648;-66
2022/03/12 11:23:04;;;;;;;6.15;2.58;;;;;;;;;;5029859;27;107240;-66
2022/03/12 11:25:31;;;;;;;6.72;2.47;;;;;;;;;;5023547;27;105973;-67
2022/03/12 11:28:00;;;;;;;7.32;2.40;;;;;;;;;;5008939;27;107358;-67
2022/03/12 11:30:28;;;;;;;4.43;2.15;;;;;;;;;;5023501;27;107317;-67
2022/03/12 11:33:05;;;;;;;11.32;3.00;;;;;;;;;;5028244;27;107556;-67
2022/03/12 11:35:36;;;;;;;6.05;2.53;;;;;;;;;;5029743;27;107773;-67
2022/03/12 11:38:12;;;;;;;11.13;2.78;;;;;;;;;;5022725;27;107360;-67
2022/03/12 11:40:42;;;;;;;10.43;2.60;;;;;;;;;;5006097;27;107931;-69
2022/03/12 11:43:23;;;;;;;7.10;2.20;;;;;;;;;;5027242;27;107038;-67
2022/03/12 11:46:00;;;;;;;6.25;2.33;;;;;;;;;;5013263;27;106327;-68
2022/03/12 11:48:27;;;;;;;10.95;2.88;;;;;;;;;;5020495;27;108087;-67
2022/03/12 11:50:53;;;;;;;15.20;3.20;;;;;;;;;;5022388;27;106445;-69
2022/03/12 11:53:20;;;;;;;8.15;2.47;;;;;;;;;;5025854;27;106970;-67
2022/03/12 11:56:07;;;;;;;6.95;2.50;;;;;;;;;;5027717;27;107599;-66
2022/03/12 11:58:34;;;;;;;6.07;2.78;;;;;;;;;;5027611;27;106838;-67
2022/03/12 12:01:00;;;;;;;8.50;2.95;;;;;;;;;;5017618;27;106995;-66
2022/03/12 12:03:27;;;;;;;7.53;2.70;;;;;;;;;;5008345;28;106266;-66
2022/03/12 12:05:56;;;;;;;8.15;2.85;;;;;;;;;;5024083;27;107296;-67
2022/03/12 12:08:23;;;;;;;5.95;2.40;;;;;;;;;;5030552;27;106426;-66
2022/03/12 12:10:51;;;;;;;6.35;2.80;;;;;;;;;;5013994;27;107434;-66
2022/03/12 12:13:18;;;;;;;11.30;2.63;;;;;;;;;;5030281;27;107049;-67
2022/03/12 12:15:46;;;;;;;10.68;3.20;;;;;;;;;;5013056;27;107536;-66
2022/03/12 12:18:13;;;;;;;8.07;2.80;;;;;;;;;;5034605;27;106254;-68
2022/03/12 12:20:41;;;;;;;6.75;2.90;;;;;;;;;;5030749;27;107352;-68
2022/03/12 12:23:16;;;;;;;7.25;2.78;;;;;;;;;;5027185;27;106274;-67
2022/03/12 12:25:43;;;;;;;7.93;2.80;;;;;;;;;;5025973;27;107654;-73
2022/03/12 12:28:18;;;;;;;9.43;3.03;;;;;;;;;;5026684;27;108848;-69
2022/03/12 12:30:46;;;;;;;6.53;3.08;;;;;;;;;;5028269;27;107535;-68
2022/03/12 12:33:16;;;;;;;7.75;2.90;;;;;;;;;;5028608;27;106998;-69
2022/03/12 12:35:44;;;;;;;6.35;2.80;;;;;;;;;;5029528;27;106406;-70
2022/03/12 12:38:12;;;;;;;8.93;2.85;;;;;;;;;;5028702;27;107730;-68
2022/03/12 12:40:44;;;;;;;7.88;2.80;;;;;;;;;;5032956;27;107063;-69
2022/03/12 12:43:13;;;;;;;7.38;2.85;;;;;;;;;;5025092;27;108701;-69
2022/03/12 12:45:45;;;;;;;8.23;2.88;;;;;;;;;;5031045;27;108037;-69
2022/03/12 12:48:18;;;;;;;5.07;2.70;;;;;;;;;;5026380;27;108414;-68
2022/03/12 12:51:07;;;;;;;7.57;2.50;;;;;;;;;;5021598;27;107900;-67
2022/03/12 12:53:36;;;;;;;6.38;2.78;;;;;;;;;;5030889;27;106741;-68
2022/03/12 12:56:33;;;;;;;7.03;2.72;;;;;;;;;;5027591;27;108555;-69
2022/03/12 12:59:02;;;;;;;8.50;2.83;;;;;;;;;;5012858;27;107730;-68
2022/03/12 13:01:35;;;;;;;7.70;3.03;;;;;;;;;;5024842;27;108147;-68
2022/03/12 13:04:05;;;;;;;6.75;2.97;;;;;;;;;;5024896;27;107377;-69
2022/03/12 13:06:40;;;;;;;5.63;3.00;;;;;;;;;;5003846;27;109302;-68
2022/03/12 13:09:10;;;;;;;6.47;2.63;;;;;;;;;;5027992;27;107951;-68
2022/03/12 13:11:38;;;;;;;;;;;;;;;;;;5031146;27;107040;-69
2022/03/12 13:14:05;;;;;;;;;;;;;;;;;;5022188;27;108093;-70
2022/03/12 13:16:46;;;;;;;8.43;2.60;;;;;;;;;;4998253;27;136509;-69
2022/03/12 13:19:28;;;;;;;6.32;2.90;;;;;;;;;;5014127;27;107980;-69
2022/03/12 13:22:02;;;;;;;7.13;2.58;;;;;;;;;;5007221;28;107760;-68
2022/03/12 13:24:30;;;;;;;5.38;2.75;;;;;;;;;;5007170;28;108098;-66
2022/03/12 13:27:00;;;;;;;10.40;2.90;;;;;;;;;;5008921;28;106474;-66
2022/03/12 13:29:27;;;;;;;6.03;2.55;;;;;;;;;;5009008;28;107576;-66
2022/03/12 13:31:56;;;;;;;9.00;2.60;;;;;;;;;;5009814;28;106808;-66
2022/03/12 13:34:23;;;;;;;5.95;2.38;;;;;;;;;;5006402;28;107816;-66
2022/03/12 13:36:54;;;;;;;6.78;2.58;;;;;;;;;;4995523;28;108341;-66
2022/03/12 13:39:20;;;;;;;8.32;2.55;;;;;;;;;;5002605;28;107466;-66
2022/03/12 13:41:48;;;;;;;18.63;3.17;;;;;;;;;;5007268;28;107011;-67
2022/03/12 13:44:16;;;;;;;6.78;2.35;;;;;;;;;;5004390;27;108629;-66
2022/03/12 13:46:43;;;;;;;4.60;1.97;;;;;;;;;;4993418;28;107116;-67
2022/03/12 13:49:11;;;;;;;;;;;;;;;;;;5005014;27;108716;-66
2022/03/12 13:51:40;;;;;;;5.85;2.60;;;;;;;;;;5010445;27;107868;-66
2022/03/12 13:54:07;;;;;;;8.32;2.30;;;;;;;;;;5008192;28;107429;-66
2022/03/12 13:56:34;;;;;;;6.90;2.70;;;;;;;;;;5004276;28;108448;-66
2022/03/12 13:59:18;;;;;;;6.00;2.50;;;;;;;;;;5009550;28;106547;-66
2022/03/12 14:01:47;;;;;;;6.30;2.42;;;;;;;;;;5002109;28;107979;-67
2022/03/12 14:04:19;;;;;;;6.03;2.45;;;;;;;;;;4994913;27;109001;-66
2022/03/12 14:07:13;;;;;;;6.25;2.30;;;;;;;;;;4994338;27;107803;-68
2022/03/12 14:09:39;;;;;;;7.00;2.08;;;;;;;;;;5006439;27;107766;-67
2022/03/12 14:12:06;;;;;;;5.25;2.13;;;;;;;;;;5007648;28;109343;-67
2022/03/12 14:14:34;;;;;;;9.40;3.90;;;;;;;;;;5002906;27;109514;-68
2022/03/12 14:17:03;;;;;;;8.35;2.33;;;;;;;;;;5015255;27;108819;-66
2022/03/12 14:19:32;;;;;;;9.77;7.53;;;;;;;;;;5018088;27;107798;-66
2022/03/12 14:22:05;;;;;;;5.93;3.03;;;;;;;;;;5038937;27;108967;-66
2022/03/12 14:24:34;;;;;;;8.70;2.30;;;;;;;;;;5029733;27;108979;-66